sensor_id;sensor_type;location;lat;lon;timestamp;temperature;humidity
25536;DHT22;13431;51.352;6.412;2022-11-18T00:01:19;8.10;99.90
25536;DHT22;13431;51.352;6.412;2022-11-18T00:03:47;8.10;99.90
25536;DHT22;13431;51.352;6.412;2022-11-18T00:06:20;8.10;99.90
25536;DHT22;13431;51.352;6.412;2022-11-18T00:08:48;8.20;99.90
25536;DHT22;13431;51.352;6.412;2022-11-18T00:11:18;8.20;99.90
25536;DHT22;13431;51.352;6.412;2022-11-18T00:14:05;8.10;99.90
25536;DHT22;13431;51.352;6.412;2022-11-18T00:16:59;8.20;99.90
25536;DHT22;13431;51.352;6.412;2022-11-18T00:19:30;8.10;99.90
25536;DHT22;13431;51.352;6.412;2022-11-18T00:21:57;8.10;99.90
25536;DHT22;13431;51.352;6.412;2022-11-18T00:24:25;8.00;99.90
25536;DHT22;13431;51.352;6.412;2022-11-18T00:26:53;8.10;99.90
25536;DHT22;13431;51.352;6.412;2022-11-18T00:29:21;8.20;99.90
25536;DHT22;13431;51.352;6.412;2022-11-18T00:31:49;8.20;99.90
25536;DHT22;13431;51.352;6.412;2022-11-18T00:34:17;8.30;99.90
25536;DHT22;13431;51.352;6.412;2022-11-18T00:36:46;8.30;99.90
25536;DHT22;13431;51.352;6.412;2022-11-18T00:39:15;8.30;99.90
25536;DHT22;13431;51.352;6.412;2022-11-18T00:41:44;8.30;99.90
25536;DHT22;13431;51.352;6.412;2022-11-18T00:44:30;8.40;99.90
25536;DHT22;13431;51.352;6.412;2022-11-18T00:46:58;8.40;99.90
25536;DHT22;13431;51.352;6.412;2022-11-18T00:49:25;8.40;99.90
25536;DHT22;13431;51.352;6.412;2022-11-18T00:51:52;8.50;99.90
25536;DHT22;13431;51.352;6.412;2022-11-18T00:54:20;8.50;99.90
25536;DHT22;13431;51.352;6.412;2022-11-18T00:56:48;8.50;99.90
25536;DHT22;13431;51.352;6.412;2022-11-18T00:59:15;8.50;99.90
25536;DHT22;13431;51.352;6.412;2022-11-18T01:01:43;8.60;99.90
25536;DHT22;13431;51.352;6.412;2022-11-18T01:04:10;8.60;99.90
25536;DHT22;13431;51.352;6.412;2022-11-18T01:06:38;8.50;99.90
25536;DHT22;13431;51.352;6.412;2022-11-18T01:09:06;8.50;99.90
25536;DHT22;13431;51.352;6.412;2022-11-18T01:11:33;8.50;99.90
25536;DHT22;13431;51.352;6.412;2022-11-18T01:14:19;8.60;99.90
25536;DHT22;13431;51.352;6.412;2022-11-18T01:16:46;8.60;99.90
25536;DHT22;13431;51.352;6.412;2022-11-18T01:19:17;8.60;99.90
25536;DHT22;13431;51.352;6.412;2022-11-18T01:21:45;8.60;99.90
25536;DHT22;13431;51.352;6.412;2022-11-18T01:24:13;8.60;99.90
25536;DHT22;13431;51.352;6.412;2022-11-18T01:26:40;8.60;99.90
25536;DHT22;13431;51.352;6.412;2022-11-18T01:29:08;8.70;99.90
25536;DHT22;13431;51.352;6.412;2022-11-18T01:31:37;8.70;99.90
25536;DHT22;13431;51.352;6.412;2022-11-18T01:34:27;8.70;99.90
25536;DHT22;13431;51.352;6.412;2022-11-18T01:36:54;8.60;99.90
25536;DHT22;13431;51.352;6.412;2022-11-18T01:39:23;8.60;99.90
25536;DHT22;13431;51.352;6.412;2022-11-18T01:41:51;8.60;99.90
25536;DHT22;13431;51.352;6.412;2022-11-18T01:47:51;8.60;99.90
25536;DHT22;13431;51.352;6.412;2022-11-18T01:50:21;8.60;99.90
25536;DHT22;13431;51.352;6.412;2022-11-18T01:52:51;8.50;99.90
25536;DHT22;13431;51.352;6.412;2022-11-18T01:55:23;8.50;99.90
25536;DHT22;13431;51.352;6.412;2022-11-18T01:58:21;8.50;99.90
25536;DHT22;13431;51.352;6.412;2022-11-18T02:00:43;8.40;99.90
25536;DHT22;13431;51.352;6.412;2022-11-18T02:03:11;8.50;99.90
25536;DHT22;13431;51.352;6.412;2022-11-18T02:05:39;8.50;99.90
25536;DHT22;13431;51.352;6.412;2022-11-18T02:08:08;8.50;99.90
25536;DHT22;13431;51.352;6.412;2022-11-18T02:10:36;8.50;99.90
25536;DHT22;13431;51.352;6.412;2022-11-18T02:13:03;8.50;99.90
25536;DHT22;13431;51.352;6.412;2022-11-18T02:15:44;8.60;99.90
25536;DHT22;13431;51.352;6.412;2022-11-18T02:18:36;8.50;99.90
25536;DHT22;13431;51.352;6.412;2022-11-18T02:30:02;8.60;99.90
25536;DHT22;13431;51.352;6.412;2022-11-18T02:38:06;8.60;99.90
25536;DHT22;13431;51.352;6.412;2022-11-18T02:40:47;8.60;99.90
25536;DHT22;13431;51.352;6.412;2022-11-18T02:43:29;8.60;99.90
25536;DHT22;13431;51.352;6.412;2022-11-18T02:46:04;8.60;99.90
25536;DHT22;13431;51.352;6.412;2022-11-18T02:48:35;8.60;99.90
25536;DHT22;13431;51.352;6.412;2022-11-18T02:51:06;8.60;99.90
25536;DHT22;13431;51.352;6.412;2022-11-18T02:53:37;8.60;99.90
25536;DHT22;13431;51.352;6.412;2022-11-18T02:56:07;8.60;99.90
25536;DHT22;13431;51.352;6.412;2022-11-18T02:58:35;8.60;99.90
25536;DHT22;13431;51.352;6.412;2022-11-18T03:01:02;8.50;99.90
25536;DHT22;13431;51.352;6.412;2022-11-18T03:03:32;8.60;99.90
25536;DHT22;13431;51.352;6.412;2022-11-18T03:09:07;8.50;99.90
25536;DHT22;13431;51.352;6.412;2022-11-18T03:14:30;8.50;99.90
25536;DHT22;13431;51.352;6.412;2022-11-18T03:22:18;8.50;99.90
25536;DHT22;13431;51.352;6.412;2022-11-18T03:25:31;8.60;99.90
25536;DHT22;13431;51.352;6.412;2022-11-18T03:27:55;8.60;99.90
25536;DHT22;13431;51.352;6.412;2022-11-18T03:30:24;8.50;99.90
25536;DHT22;13431;51.352;6.412;2022-11-18T03:32:59;8.50;99.90
25536;DHT22;13431;51.352;6.412;2022-11-18T03:35:30;8.50;99.90
25536;DHT22;13431;51.352;6.412;2022-11-18T03:38:04;8.50;99.90
25536;DHT22;13431;51.352;6.412;2022-11-18T03:40:34;8.60;99.90
25536;DHT22;13431;51.352;6.412;2022-11-18T03:43:13;8.60;99.90
25536;DHT22;13431;51.352;6.412;2022-11-18T03:45:54;8.60;99.90
25536;DHT22;13431;51.352;6.412;2022-11-18T03:48:43;8.60;99.90
25536;DHT22;13431;51.352;6.412;2022-11-18T03:51:15;8.60;99.90
25536;DHT22;13431;51.352;6.412;2022-11-18T03:53:50;8.60;99.90
25536;DHT22;13431;51.352;6.412;2022-11-18T03:56:22;8.70;99.90
25536;DHT22;13431;51.352;6.412;2022-11-18T03:59:09;8.70;99.90
25536;DHT22;13431;51.352;6.412;2022-11-18T04:01:56;8.60;99.90
25536;DHT22;13431;51.352;6.412;2022-11-18T04:04:24;8.60;99.90
25536;DHT22;13431;51.352;6.412;2022-11-18T04:07:13;8.60;99.90
25536;DHT22;13431;51.352;6.412;2022-11-18T04:09:47;8.60;99.90
25536;DHT22;13431;51.352;6.412;2022-11-18T04:12:18;8.60;99.90
25536;DHT22;13431;51.352;6.412;2022-11-18T04:14:47;8.60;99.90
25536;DHT22;13431;51.352;6.412;2022-11-18T04:17:22;8.50;99.90
25536;DHT22;13431;51.352;6.412;2022-11-18T04:19:52;8.60;99.90
25536;DHT22;13431;51.352;6.412;2022-11-18T04:22:20;8.50;99.90
25536;DHT22;13431;51.352;6.412;2022-11-18T04:24:47;8.50;99.90
25536;DHT22;13431;51.352;6.412;2022-11-18T04:27:15;8.50;99.90
25536;DHT22;13431;51.352;6.412;2022-11-18T04:29:42;8.40;99.90
25536;DHT22;13431;51.352;6.412;2022-11-18T04:32:09;8.40;99.90
25536;DHT22;13431;51.352;6.412;2022-11-18T04:34:37;8.40;99.90
25536;DHT22;13431;51.352;6.412;2022-11-18T04:37:04;8.40;99.90
25536;DHT22;13431;51.352;6.412;2022-11-18T04:39:32;8.40;99.90
25536;DHT22;13431;51.352;6.412;2022-11-18T04:41:59;8.40;99.90
25536;DHT22;13431;51.352;6.412;2022-11-18T04:44:29;8.40;99.90
25536;DHT22;13431;51.352;6.412;2022-11-18T04:46:59;8.30;99.90
25536;DHT22;13431;51.352;6.412;2022-11-18T04:49:27;8.30;99.90
25536;DHT22;13431;51.352;6.412;2022-11-18T04:51:55;8.30;99.90
25536;DHT22;13431;51.352;6.412;2022-11-18T04:54:24;8.30;99.90
25536;DHT22;13431;51.352;6.412;2022-11-18T04:56:53;8.20;99.90
25536;DHT22;13431;51.352;6.412;2022-11-18T04:59:24;8.10;99.90
25536;DHT22;13431;51.352;6.412;2022-11-18T05:01:53;8.10;99.90
25536;DHT22;13431;51.352;6.412;2022-11-18T05:04:23;7.90;99.90
25536;DHT22;13431;51.352;6.412;2022-11-18T05:06:51;7.90;99.90
25536;DHT22;13431;51.352;6.412;2022-11-18T05:09:18;8.00;99.90
25536;DHT22;13431;51.352;6.412;2022-11-18T05:11:47;7.90;99.90
25536;DHT22;13431;51.352;6.412;2022-11-18T05:14:33;8.00;99.90
25536;DHT22;13431;51.352;6.412;2022-11-18T05:17:01;8.10;99.90
25536;DHT22;13431;51.352;6.412;2022-11-18T05:19:29;8.10;99.90
25536;DHT22;13431;51.352;6.412;2022-11-18T05:21:57;8.10;99.90
25536;DHT22;13431;51.352;6.412;2022-11-18T05:24:24;8.10;99.90
25536;DHT22;13431;51.352;6.412;2022-11-18T05:26:52;8.20;99.90
25536;DHT22;13431;51.352;6.412;2022-11-18T05:29:21;8.30;99.90
25536;DHT22;13431;51.352;6.412;2022-11-18T05:31:48;8.40;99.90
25536;DHT22;13431;51.352;6.412;2022-11-18T05:34:17;8.40;99.90
25536;DHT22;13431;51.352;6.412;2022-11-18T05:36:44;8.50;99.90
25536;DHT22;13431;51.352;6.412;2022-11-18T05:39:12;8.50;99.90
25536;DHT22;13431;51.352;6.412;2022-11-18T05:41:39;8.50;99.90
25536;DHT22;13431;51.352;6.412;2022-11-18T05:44:25;8.60;99.90
25536;DHT22;13431;51.352;6.412;2022-11-18T05:46:52;8.60;99.90
25536;DHT22;13431;51.352;6.412;2022-11-18T05:49:20;8.60;99.90
25536;DHT22;13431;51.352;6.412;2022-11-18T05:51:48;8.70;99.90
25536;DHT22;13431;51.352;6.412;2022-11-18T05:54:15;8.70;99.90
25536;DHT22;13431;51.352;6.412;2022-11-18T05:56:45;8.70;99.90
25536;DHT22;13431;51.352;6.412;2022-11-18T05:59:13;8.70;99.90
25536;DHT22;13431;51.352;6.412;2022-11-18T06:01:54;8.70;99.90
25536;DHT22;13431;51.352;6.412;2022-11-18T06:07:12;8.70;99.90
25536;DHT22;13431;51.352;6.412;2022-11-18T06:09:43;8.80;99.90
25536;DHT22;13431;51.352;6.412;2022-11-18T06:12:15;8.80;99.90
25536;DHT22;13431;51.352;6.412;2022-11-18T06:14:47;8.80;99.90
25536;DHT22;13431;51.352;6.412;2022-11-18T06:17:20;8.80;99.90
25536;DHT22;13431;51.352;6.412;2022-11-18T06:19:47;8.80;99.90
25536;DHT22;13431;51.352;6.412;2022-11-18T06:22:15;8.70;99.90
25536;DHT22;13431;51.352;6.412;2022-11-18T06:24:43;8.80;99.90
25536;DHT22;13431;51.352;6.412;2022-11-18T06:27:11;8.80;99.90
25536;DHT22;13431;51.352;6.412;2022-11-18T06:29:39;8.80;99.90
25536;DHT22;13431;51.352;6.412;2022-11-18T06:32:07;8.80;99.90
25536;DHT22;13431;51.352;6.412;2022-11-18T06:34:34;8.80;99.90
25536;DHT22;13431;51.352;6.412;2022-11-18T06:37:15;8.80;99.90
25536;DHT22;13431;51.352;6.412;2022-11-18T06:39:43;8.60;99.90
25536;DHT22;13431;51.352;6.412;2022-11-18T06:42:10;8.50;99.90
25536;DHT22;13431;51.352;6.412;2022-11-18T06:44:37;8.40;99.90
25536;DHT22;13431;51.352;6.412;2022-11-18T06:47:05;8.30;99.90
25536;DHT22;13431;51.352;6.412;2022-11-18T06:49:32;8.20;99.90
25536;DHT22;13431;51.352;6.412;2022-11-18T06:51:59;8.20;99.90
25536;DHT22;13431;51.352;6.412;2022-11-18T06:54:27;8.20;99.90
25536;DHT22;13431;51.352;6.412;2022-11-18T06:56:54;8.20;99.90
25536;DHT22;13431;51.352;6.412;2022-11-18T06:59:21;8.10;99.90
25536;DHT22;13431;51.352;6.412;2022-11-18T07:01:50;8.10;99.90
25536;DHT22;13431;51.352;6.412;2022-11-18T07:04:19;8.10;99.90
25536;DHT22;13431;51.352;6.412;2022-11-18T07:06:47;8.00;99.90
25536;DHT22;13431;51.352;6.412;2022-11-18T07:09:14;8.00;99.90
25536;DHT22;13431;51.352;6.412;2022-11-18T07:11:42;8.00;99.90
25536;DHT22;13431;51.352;6.412;2022-11-18T07:14:11;7.90;99.90
25536;DHT22;13431;51.352;6.412;2022-11-18T07:16:38;7.90;99.90
25536;DHT22;13431;51.352;6.412;2022-11-18T07:19:11;7.80;99.90
25536;DHT22;13431;51.352;6.412;2022-11-18T07:21:39;7.70;99.90
25536;DHT22;13431;51.352;6.412;2022-11-18T07:24:08;7.80;99.90
25536;DHT22;13431;51.352;6.412;2022-11-18T07:26:37;7.80;99.90
25536;DHT22;13431;51.352;6.412;2022-11-18T07:29:05;7.90;99.90
25536;DHT22;13431;51.352;6.412;2022-11-18T07:31:32;8.10;99.90
25536;DHT22;13431;51.352;6.412;2022-11-18T07:34:03;8.20;99.90
25536;DHT22;13431;51.352;6.412;2022-11-18T07:36:30;8.30;99.90
25536;DHT22;13431;51.352;6.412;2022-11-18T07:39:04;8.30;99.90
25536;DHT22;13431;51.352;6.412;2022-11-18T07:41:32;8.20;99.90
25536;DHT22;13431;51.352;6.412;2022-11-18T07:44:01;8.30;99.90
25536;DHT22;13431;51.352;6.412;2022-11-18T07:46:35;8.20;99.90
25536;DHT22;13431;51.352;6.412;2022-11-18T07:49:07;8.20;99.90
25536;DHT22;13431;51.352;6.412;2022-11-18T07:51:37;8.20;99.90
25536;DHT22;13431;51.352;6.412;2022-11-18T07:54:09;8.10;99.90
25536;DHT22;13431;51.352;6.412;2022-11-18T07:56:37;8.10;99.90
25536;DHT22;13431;51.352;6.412;2022-11-18T07:59:05;8.10;99.90
25536;DHT22;13431;51.352;6.412;2022-11-18T08:01:32;7.90;99.90
25536;DHT22;13431;51.352;6.412;2022-11-18T08:04:08;7.90;99.90
25536;DHT22;13431;51.352;6.412;2022-11-18T08:06:37;7.90;99.90
25536;DHT22;13431;51.352;6.412;2022-11-18T08:09:05;8.10;99.90
25536;DHT22;13431;51.352;6.412;2022-11-18T08:11:33;8.20;99.90
25536;DHT22;13431;51.352;6.412;2022-11-18T08:14:00;8.30;99.90
25536;DHT22;13431;51.352;6.412;2022-11-18T08:16:28;8.40;99.90
25536;DHT22;13431;51.352;6.412;2022-11-18T08:18:57;8.40;99.90
25536;DHT22;13431;51.352;6.412;2022-11-18T08:21:24;8.40;99.90
25536;DHT22;13431;51.352;6.412;2022-11-18T08:23:54;8.50;99.90
25536;DHT22;13431;51.352;6.412;2022-11-18T08:26:22;8.60;99.90
25536;DHT22;13431;51.352;6.412;2022-11-18T08:28:51;8.80;99.90
25536;DHT22;13431;51.352;6.412;2022-11-18T08:31:24;9.00;99.90
25536;DHT22;13431;51.352;6.412;2022-11-18T08:33:59;9.20;99.90
25536;DHT22;13431;51.352;6.412;2022-11-18T08:36:30;9.40;99.90
25536;DHT22;13431;51.352;6.412;2022-11-18T08:38:59;9.60;99.90
25536;DHT22;13431;51.352;6.412;2022-11-18T08:41:35;9.90;99.90
25536;DHT22;13431;51.352;6.412;2022-11-18T08:44:05;10.30;99.90
25536;DHT22;13431;51.352;6.412;2022-11-18T08:46:32;10.90;99.90
25536;DHT22;13431;51.352;6.412;2022-11-18T08:49:01;11.00;99.90
25536;DHT22;13431;51.352;6.412;2022-11-18T08:51:29;11.30;99.90
25536;DHT22;13431;51.352;6.412;2022-11-18T08:53:56;11.50;99.90
25536;DHT22;13431;51.352;6.412;2022-11-18T08:56:24;11.70;99.90
25536;DHT22;13431;51.352;6.412;2022-11-18T08:58:53;12.10;99.90
25536;DHT22;13431;51.352;6.412;2022-11-18T09:01:20;12.70;99.90
25536;DHT22;13431;51.352;6.412;2022-11-18T09:03:48;13.50;99.90
25536;DHT22;13431;51.352;6.412;2022-11-18T09:06:20;13.50;99.90
25536;DHT22;13431;51.352;6.412;2022-11-18T09:08:48;14.30;99.90
25536;DHT22;13431;51.352;6.412;2022-11-18T09:11:18;14.90;99.90
25536;DHT22;13431;51.352;6.412;2022-11-18T09:13:45;16.30;99.90
25536;DHT22;13431;51.352;6.412;2022-11-18T09:16:33;16.90;99.90
25536;DHT22;13431;51.352;6.412;2022-11-18T09:19:01;17.30;99.90
25536;DHT22;13431;51.352;6.412;2022-11-18T09:21:49;18.40;99.90
25536;DHT22;13431;51.352;6.412;2022-11-18T09:24:16;18.90;99.90
25536;DHT22;13431;51.352;6.412;2022-11-18T09:26:44;19.70;99.90
25536;DHT22;13431;51.352;6.412;2022-11-18T09:29:11;19.30;99.90
25536;DHT22;13431;51.352;6.412;2022-11-18T09:31:39;18.90;99.90
25536;DHT22;13431;51.352;6.412;2022-11-18T09:34:06;18.60;99.90
25536;DHT22;13431;51.352;6.412;2022-11-18T09:36:36;17.90;99.90
25536;DHT22;13431;51.352;6.412;2022-11-18T09:39:03;18.40;99.90
25536;DHT22;13431;51.352;6.412;2022-11-18T09:47:29;19.50;99.90
25536;DHT22;13431;51.352;6.412;2022-11-18T09:50:08;19.10;99.90
25536;DHT22;13431;51.352;6.412;2022-11-18T09:53:04;16.80;99.90
25536;DHT22;13431;51.352;6.412;2022-11-18T09:55:36;14.60;99.90
25536;DHT22;13431;51.352;6.412;2022-11-18T09:58:04;13.90;99.90
25536;DHT22;13431;51.352;6.412;2022-11-18T10:00:33;13.40;99.90
25536;DHT22;13431;51.352;6.412;2022-11-18T10:08:41;15.80;99.90
25536;DHT22;13431;51.352;6.412;2022-11-18T10:11:19;15.20;99.90
25536;DHT22;13431;51.352;6.412;2022-11-18T10:16:48;13.70;99.90
25536;DHT22;13431;51.352;6.412;2022-11-18T10:19:50;13.70;99.90
25536;DHT22;13431;51.352;6.412;2022-11-18T10:22:25;13.50;99.90
25536;DHT22;13431;51.352;6.412;2022-11-18T10:24:55;13.10;99.90
25536;DHT22;13431;51.352;6.412;2022-11-18T10:27:32;12.90;99.90
25536;DHT22;13431;51.352;6.412;2022-11-18T10:30:00;13.60;99.90
25536;DHT22;13431;51.352;6.412;2022-11-18T10:32:28;14.40;99.90
25536;DHT22;13431;51.352;6.412;2022-11-18T10:34:57;15.60;99.90
25536;DHT22;13431;51.352;6.412;2022-11-18T10:37:27;17.00;99.90
25536;DHT22;13431;51.352;6.412;2022-11-18T10:40:26;16.90;99.90
25536;DHT22;13431;51.352;6.412;2022-11-18T10:42:54;16.30;99.90
25536;DHT22;13431;51.352;6.412;2022-11-18T10:50:40;12.80;99.90
25536;DHT22;13431;51.352;6.412;2022-11-18T10:53:33;12.50;99.90
25536;DHT22;13431;51.352;6.412;2022-11-18T10:56:12;12.30;99.90
25536;DHT22;13431;51.352;6.412;2022-11-18T10:58:44;12.30;99.90
25536;DHT22;13431;51.352;6.412;2022-11-18T11:01:21;12.40;99.90
25536;DHT22;13431;51.352;6.412;2022-11-18T11:04:05;12.40;99.90
25536;DHT22;13431;51.352;6.412;2022-11-18T11:06:38;12.60;99.90
25536;DHT22;13431;51.352;6.412;2022-11-18T11:09:28;12.80;99.90
25536;DHT22;13431;51.352;6.412;2022-11-18T11:12:08;12.90;99.90
25536;DHT22;13431;51.352;6.412;2022-11-18T11:14:53;13.00;99.90
25536;DHT22;13431;51.352;6.412;2022-11-18T11:17:37;12.80;99.90
25536;DHT22;13431;51.352;6.412;2022-11-18T11:22:39;12.30;99.90
25536;DHT22;13431;51.352;6.412;2022-11-18T11:25:16;12.30;99.90
25536;DHT22;13431;51.352;6.412;2022-11-18T11:28:06;12.20;99.90
25536;DHT22;13431;51.352;6.412;2022-11-18T11:31:13;12.00;99.90
25536;DHT22;13431;51.352;6.412;2022-11-18T11:37:08;11.70;99.90
25536;DHT22;13431;51.352;6.412;2022-11-18T11:50:53;11.30;99.90
25536;DHT22;13431;51.352;6.412;2022-11-18T11:56:39;11.40;99.90
25536;DHT22;13431;51.352;6.412;2022-11-18T12:07:39;11.50;99.90
25536;DHT22;13431;51.352;6.412;2022-11-18T12:13:23;11.40;99.90
25536;DHT22;13431;51.352;6.412;2022-11-18T12:16:13;11.40;99.90
25536;DHT22;13431;51.352;6.412;2022-11-18T12:18:57;11.40;99.90
25536;DHT22;13431;51.352;6.412;2022-11-18T12:26:52;12.00;99.90
25536;DHT22;13431;51.352;6.412;2022-11-18T12:31:57;12.40;99.90
25536;DHT22;13431;51.352;6.412;2022-11-18T12:34:37;12.30;99.90
25536;DHT22;13431;51.352;6.412;2022-11-18T12:40:02;12.20;99.90
25536;DHT22;13431;51.352;6.412;2022-11-18T12:42:41;11.90;99.90
25536;DHT22;13431;51.352;6.412;2022-11-18T12:53:52;11.90;99.90
25536;DHT22;13431;51.352;6.412;2022-11-18T12:56:26;12.30;99.90
25536;DHT22;13431;51.352;6.412;2022-11-18T12:58:56;12.50;99.90
25536;DHT22;13431;51.352;6.412;2022-11-18T13:01:27;12.70;99.90
25536;DHT22;13431;51.352;6.412;2022-11-18T13:04:21;12.40;99.90
25536;DHT22;13431;51.352;6.412;2022-11-18T13:06:49;11.80;99.90
25536;DHT22;13431;51.352;6.412;2022-11-18T13:09:22;11.60;99.90
25536;DHT22;13431;51.352;6.412;2022-11-18T13:11:54;11.40;99.90
25536;DHT22;13431;51.352;6.412;2022-11-18T13:20:26;11.70;99.90
25536;DHT22;13431;51.352;6.412;2022-11-18T13:22:58;11.50;99.90
25536;DHT22;13431;51.352;6.412;2022-11-18T13:25:45;11.40;99.90
25536;DHT22;13431;51.352;6.412;2022-11-18T13:33:53;10.70;99.90
25536;DHT22;13431;51.352;6.412;2022-11-18T13:36:23;10.60;99.90
25536;DHT22;13431;51.352;6.412;2022-11-18T13:39:00;10.60;99.90
25536;DHT22;13431;51.352;6.412;2022-11-18T13:41:29;10.50;99.90
25536;DHT22;13431;51.352;6.412;2022-11-18T13:46:38;10.30;99.90
25536;DHT22;13431;51.352;6.412;2022-11-18T13:49:14;10.30;99.90
25536;DHT22;13431;51.352;6.412;2022-11-18T13:51:43;10.30;99.90
25536;DHT22;13431;51.352;6.412;2022-11-18T13:54:20;10.30;99.90
25536;DHT22;13431;51.352;6.412;2022-11-18T13:56:48;10.50;99.90
25536;DHT22;13431;51.352;6.412;2022-11-18T13:59:18;10.70;99.90
25536;DHT22;13431;51.352;6.412;2022-11-18T14:01:53;10.90;99.90
25536;DHT22;13431;51.352;6.412;2022-11-18T14:05:02;11.20;99.90
25536;DHT22;13431;51.352;6.412;2022-11-18T14:07:32;11.30;99.90
25536;DHT22;13431;51.352;6.412;2022-11-18T14:10:03;11.30;99.90
25536;DHT22;13431;51.352;6.412;2022-11-18T14:12:33;11.40;99.90
25536;DHT22;13431;51.352;6.412;2022-11-18T14:15:20;11.50;99.90
25536;DHT22;13431;51.352;6.412;2022-11-18T14:17:55;11.50;99.90
25536;DHT22;13431;51.352;6.412;2022-11-18T14:20:25;11.60;99.90
25536;DHT22;13431;51.352;6.412;2022-11-18T14:22:58;11.60;99.90
25536;DHT22;13431;51.352;6.412;2022-11-18T14:25:34;11.60;99.90
25536;DHT22;13431;51.352;6.412;2022-11-18T14:28:32;11.60;99.90
25536;DHT22;13431;51.352;6.412;2022-11-18T14:34:17;11.10;99.90
25536;DHT22;13431;51.352;6.412;2022-11-18T14:36:46;10.80;99.90
25536;DHT22;13431;51.352;6.412;2022-11-18T14:39:30;10.60;99.90
25536;DHT22;13431;51.352;6.412;2022-11-18T14:41:58;10.30;99.90
25536;DHT22;13431;51.352;6.412;2022-11-18T14:44:26;10.00;99.90
25536;DHT22;13431;51.352;6.412;2022-11-18T14:46:57;9.90;99.90
25536;DHT22;13431;51.352;6.412;2022-11-18T14:49:26;9.70;99.90
25536;DHT22;13431;51.352;6.412;2022-11-18T14:51:54;9.50;99.90
25536;DHT22;13431;51.352;6.412;2022-11-18T14:54:23;9.30;99.90
25536;DHT22;13431;51.352;6.412;2022-11-18T14:56:57;9.20;99.90
25536;DHT22;13431;51.352;6.412;2022-11-18T14:59:26;9.00;99.90
25536;DHT22;13431;51.352;6.412;2022-11-18T15:01:53;8.90;99.90
25536;DHT22;13431;51.352;6.412;2022-11-18T15:04:22;8.80;99.90
25536;DHT22;13431;51.352;6.412;2022-11-18T15:06:51;8.90;99.90
25536;DHT22;13431;51.352;6.412;2022-11-18T15:09:18;8.90;99.90
25536;DHT22;13431;51.352;6.412;2022-11-18T15:11:46;8.90;99.90
25536;DHT22;13431;51.352;6.412;2022-11-18T15:14:13;8.90;99.90
25536;DHT22;13431;51.352;6.412;2022-11-18T15:16:41;8.90;99.90
25536;DHT22;13431;51.352;6.412;2022-11-18T15:19:13;8.80;99.90
25536;DHT22;13431;51.352;6.412;2022-11-18T15:21:42;8.70;99.90
25536;DHT22;13431;51.352;6.412;2022-11-18T15:24:09;8.60;99.90
25536;DHT22;13431;51.352;6.412;2022-11-18T15:26:43;8.60;99.90
25536;DHT22;13431;51.352;6.412;2022-11-18T15:29:22;8.40;99.90
25536;DHT22;13431;51.352;6.412;2022-11-18T15:31:50;8.30;99.90
25536;DHT22;13431;51.352;6.412;2022-11-18T15:34:18;8.20;99.90
25536;DHT22;13431;51.352;6.412;2022-11-18T15:36:48;8.20;99.90
25536;DHT22;13431;51.352;6.412;2022-11-18T15:39:15;8.20;99.90
25536;DHT22;13431;51.352;6.412;2022-11-18T15:41:43;8.20;99.90
25536;DHT22;13431;51.352;6.412;2022-11-18T15:44:10;8.20;99.90
25536;DHT22;13431;51.352;6.412;2022-11-18T15:46:37;8.30;99.90
25536;DHT22;13431;51.352;6.412;2022-11-18T15:49:05;8.40;99.90
25536;DHT22;13431;51.352;6.412;2022-11-18T15:51:36;8.60;99.90
25536;DHT22;13431;51.352;6.412;2022-11-18T15:54:03;8.60;99.90
25536;DHT22;13431;51.352;6.412;2022-11-18T15:56:31;8.60;99.90
25536;DHT22;13431;51.352;6.412;2022-11-18T15:59:04;8.70;99.90
25536;DHT22;13431;51.352;6.412;2022-11-18T16:01:39;8.70;99.90
25536;DHT22;13431;51.352;6.412;2022-11-18T16:04:09;8.80;99.90
25536;DHT22;13431;51.352;6.412;2022-11-18T16:06:37;8.80;99.90
25536;DHT22;13431;51.352;6.412;2022-11-18T16:09:05;8.80;99.90
25536;DHT22;13431;51.352;6.412;2022-11-18T16:11:33;8.90;99.90
25536;DHT22;13431;51.352;6.412;2022-11-18T16:14:20;8.90;99.90
25536;DHT22;13431;51.352;6.412;2022-11-18T16:16:51;8.90;99.90
25536;DHT22;13431;51.352;6.412;2022-11-18T16:19:22;8.90;99.90
25536;DHT22;13431;51.352;6.412;2022-11-18T16:21:52;8.80;99.90
25536;DHT22;13431;51.352;6.412;2022-11-18T16:24:22;8.80;99.90
25536;DHT22;13431;51.352;6.412;2022-11-18T16:26:50;8.80;99.90
25536;DHT22;13431;51.352;6.412;2022-11-18T16:29:17;8.70;99.90
25536;DHT22;13431;51.352;6.412;2022-11-18T16:31:47;8.70;99.90
25536;DHT22;13431;51.352;6.412;2022-11-18T16:34:24;8.50;99.90
25536;DHT22;13431;51.352;6.412;2022-11-18T16:36:54;8.30;99.90
25536;DHT22;13431;51.352;6.412;2022-11-18T16:39:24;8.20;99.90
25536;DHT22;13431;51.352;6.412;2022-11-18T16:41:55;8.10;99.90
25536;DHT22;13431;51.352;6.412;2022-11-18T16:44:28;8.00;99.90
25536;DHT22;13431;51.352;6.412;2022-11-18T16:46:56;8.10;99.90
25536;DHT22;13431;51.352;6.412;2022-11-18T16:49:25;8.00;99.90
25536;DHT22;13431;51.352;6.412;2022-11-18T16:51:55;8.10;99.90
25536;DHT22;13431;51.352;6.412;2022-11-18T16:54:29;8.20;99.90
25536;DHT22;13431;51.352;6.412;2022-11-18T16:56:58;8.50;99.90
25536;DHT22;13431;51.352;6.412;2022-11-18T16:59:28;8.70;99.90
25536;DHT22;13431;51.352;6.412;2022-11-18T17:01:57;8.90;99.90
25536;DHT22;13431;51.352;6.412;2022-11-18T17:04:26;9.00;99.90
25536;DHT22;13431;51.352;6.412;2022-11-18T17:06:53;9.10;99.90
25536;DHT22;13431;51.352;6.412;2022-11-18T17:09:23;9.10;99.90
25536;DHT22;13431;51.352;6.412;2022-11-18T17:11:53;9.10;99.90
25536;DHT22;13431;51.352;6.412;2022-11-18T17:14:22;9.00;99.90
25536;DHT22;13431;51.352;6.412;2022-11-18T17:16:50;9.00;99.90
25536;DHT22;13431;51.352;6.412;2022-11-18T17:19:19;8.80;99.90
25536;DHT22;13431;51.352;6.412;2022-11-18T17:21:49;8.80;99.90
25536;DHT22;13431;51.352;6.412;2022-11-18T17:24:19;8.80;99.90
25536;DHT22;13431;51.352;6.412;2022-11-18T17:26:47;8.70;99.90
25536;DHT22;13431;51.352;6.412;2022-11-18T17:29:15;8.70;99.90
25536;DHT22;13431;51.352;6.412;2022-11-18T17:31:43;8.70;99.90
25536;DHT22;13431;51.352;6.412;2022-11-18T17:34:12;8.70;99.90
25536;DHT22;13431;51.352;6.412;2022-11-18T17:36:40;8.70;99.90
25536;DHT22;13431;51.352;6.412;2022-11-18T17:39:09;8.70;99.90
25536;DHT22;13431;51.352;6.412;2022-11-18T17:41:37;8.70;99.90
25536;DHT22;13431;51.352;6.412;2022-11-18T17:44:24;8.70;99.90
25536;DHT22;13431;51.352;6.412;2022-11-18T17:46:52;8.70;99.90
25536;DHT22;13431;51.352;6.412;2022-11-18T17:49:20;8.70;99.90
25536;DHT22;13431;51.352;6.412;2022-11-18T17:51:48;8.70;99.90
25536;DHT22;13431;51.352;6.412;2022-11-18T17:54:18;8.70;99.90
25536;DHT22;13431;51.352;6.412;2022-11-18T17:56:46;8.70;99.90
25536;DHT22;13431;51.352;6.412;2022-11-18T17:59:14;8.70;99.90
25536;DHT22;13431;51.352;6.412;2022-11-18T18:01:44;8.70;99.90
25536;DHT22;13431;51.352;6.412;2022-11-18T18:04:13;8.70;99.90
25536;DHT22;13431;51.352;6.412;2022-11-18T18:06:40;8.80;99.90
25536;DHT22;13431;51.352;6.412;2022-11-18T18:09:08;8.80;99.90
25536;DHT22;13431;51.352;6.412;2022-11-18T18:11:35;8.80;99.90